createdAt,value
2022-10-17T00:01:15.191Z,100015.88
2022-10-17T00:03:42.034Z,100022.66
2022-10-17T00:06:09.805Z,100020.53
2022-10-17T00:08:36.785Z,100016.69
2022-10-17T00:11:04.140Z,100015.00
2022-10-17T00:15:59.847Z,100033.34
2022-10-17T00:18:26.281Z,100040.47
2022-10-17T00:20:52.740Z,100044.69
2022-10-17T00:23:19.721Z,100043.72
2022-10-17T00:25:46.056Z,100039.00
2022-10-17T00:28:12.916Z,100052.47
2022-10-17T00:30:41.041Z,100048.78
2022-10-17T00:33:07.493Z,100051.91
2022-10-17T00:35:33.891Z,100044.69
2022-10-17T00:38:00.427Z,100052.03
2022-10-17T00:40:26.836Z,100046.22
2022-10-17T00:42:53.203Z,100039.59
2022-10-17T00:45:22.015Z,100043.97
2022-10-17T00:47:53.023Z,100042.84
2022-10-17T00:50:19.664Z,100048.91
2022-10-17T00:52:46.699Z,100062.22
2022-10-17T00:55:16.023Z,100053.00
2022-10-17T00:57:43.073Z,100058.28
2022-10-17T01:00:10.156Z,100067.00
2022-10-17T01:02:36.886Z,100067.88
2022-10-17T01:05:04.608Z,100063.34
2022-10-17T01:07:34.647Z,100073.94
2022-10-17T01:10:05.549Z,100094.25
2022-10-17T01:12:36.647Z,100092.44
2022-10-17T01:15:09.568Z,100096.66
2022-10-17T01:17:44.297Z,100100.78
2022-10-17T01:20:25.378Z,100107.41
2022-10-17T01:22:59.019Z,100112.63
2022-10-17T01:25:29.090Z,100112.91
2022-10-17T01:28:01.035Z,100119.56
2022-10-17T01:30:34.960Z,100118.41
2022-10-17T01:33:07.012Z,100114.63
2022-10-17T01:35:37.175Z,100112.50
2022-10-17T01:38:08.480Z,100115.06
2022-10-17T01:40:37.050Z,100111.38
2022-10-17T01:43:05.122Z,100120.09
2022-10-17T01:45:34.269Z,100118.19
2022-10-17T01:48:04.266Z,100109.13
2022-10-17T01:50:33.973Z,100104.59
2022-10-17T01:53:02.579Z,100112.50
2022-10-17T01:55:31.930Z,100109.69
2022-10-17T01:58:01.238Z,100109.25
2022-10-17T02:00:27.842Z,100102.63
2022-10-17T02:02:56.759Z,100102.06
2022-10-17T02:05:26.286Z,100116.88
2022-10-17T02:07:53.940Z,100119.84
2022-10-17T02:10:23.808Z,100108.84
2022-10-17T02:12:54.602Z,100104.88
2022-10-17T02:15:28.290Z,100100.06
2022-10-17T02:17:59.101Z,100091.00
2022-10-17T02:20:31.238Z,100076.59
2022-10-17T02:23:03.009Z,100070.94
2022-10-17T02:25:35.672Z,100078.16
2022-10-17T02:28:06.309Z,100077.16
2022-10-17T02:30:35.948Z,100091.34
2022-10-17T02:33:05.809Z,100085.13
2022-10-17T02:35:35.157Z,100077.75
2022-10-17T02:38:03.564Z,100071.25
2022-10-17T02:40:30.866Z,100061.09
2022-10-17T02:42:58.717Z,100066.00
2022-10-17T02:45:26.623Z,100061.53
2022-10-17T02:47:55.905Z,100076.06
2022-10-17T02:50:24.743Z,100085.25
2022-10-17T02:52:54.831Z,100076.91
2022-10-17T02:55:24.924Z,100094.53
2022-10-17T02:57:52.824Z,100100.63
2022-10-17T03:00:20.286Z,100102.31
2022-10-17T03:02:47.818Z,100100.47
2022-10-17T03:05:16.129Z,100116.50
2022-10-17T03:07:42.443Z,100117.06
2022-10-17T03:10:08.845Z,100112.53
2022-10-17T03:12:36.500Z,100113.38
2022-10-17T03:15:03.366Z,100107.44
2022-10-17T03:17:29.778Z,100111.94
2022-10-17T03:19:56.119Z,100107.13
2022-10-17T03:22:23.483Z,100119.28
2022-10-17T03:24:49.871Z,100113.34
2022-10-17T03:27:16.224Z,100113.34
2022-10-17T03:29:43.863Z,100117.16
2022-10-17T03:32:10.191Z,100116.72
2022-10-17T03:34:36.570Z,100120.81
2022-10-17T03:37:03.083Z,100126.06
2022-10-17T03:39:29.425Z,100131.28
2022-10-17T03:41:55.804Z,100126.47
2022-10-17T03:44:22.157Z,100136.22
2022-10-17T03:46:49.951Z,100131.59
2022-10-17T03:49:16.364Z,100132.31
2022-10-17T03:51:42.793Z,100129.63
2022-10-17T03:54:09.147Z,100142.34
2022-10-17T03:56:35.490Z,100135.09
2022-10-17T03:59:01.838Z,100146.53
2022-10-17T04:01:28.262Z,100154.00
2022-10-17T04:03:56.365Z,100153.59
2022-10-17T04:06:22.841Z,100158.53
2022-10-17T04:08:49.182Z,100166.72
2022-10-17T04:11:16.414Z,100177.75
2022-10-17T04:13:43.233Z,100176.34
2022-10-17T04:16:11.675Z,100181.31
2022-10-17T04:18:38.183Z,100188.19
2022-10-17T04:21:06.917Z,100187.09
2022-10-17T04:23:33.623Z,100185.97
2022-10-17T04:26:00.698Z,100196.72
2022-10-17T04:28:27.721Z,100204.47
2022-10-17T04:30:57.389Z,100206.00
2022-10-17T04:33:23.760Z,100200.81
2022-10-17T04:35:55.076Z,100208.63
2022-10-17T04:38:26.259Z,100210.19
2022-10-17T04:40:56.758Z,100212.78
2022-10-17T04:43:23.138Z,100221.78
2022-10-17T04:45:49.599Z,100233.34
2022-10-17T04:48:15.934Z,100238.97
2022-10-17T04:50:42.393Z,100246.03
2022-10-17T04:53:08.785Z,100240.41
2022-10-17T04:55:38.349Z,100237.44
2022-10-17T04:58:04.657Z,100239.28
2022-10-17T05:00:30.999Z,100250.22
2022-10-17T05:02:57.379Z,100253.75
2022-10-17T05:05:23.782Z,100249.06
2022-10-17T05:07:50.124Z,100261.38
2022-10-17T05:10:16.495Z,100272.69
2022-10-17T05:12:44.115Z,100275.25
2022-10-17T05:15:10.624Z,100276.09
2022-10-17T05:17:37.150Z,100282.31
2022-10-17T05:20:03.860Z,100278.50
2022-10-17T05:22:30.851Z,100290.09
2022-10-17T05:24:57.384Z,100292.63
2022-10-17T05:27:23.770Z,100293.31
2022-10-17T05:29:51.419Z,100305.00
2022-10-17T05:32:17.893Z,100301.88
2022-10-17T05:34:44.254Z,100314.84
2022-10-17T05:37:10.651Z,100316.41
2022-10-17T05:39:36.941Z,100328.31
2022-10-17T05:42:03.353Z,100331.41
2022-10-17T05:44:29.767Z,100334.69
2022-10-17T05:46:57.359Z,100344.47
2022-10-17T05:49:33.277Z,100348.09
2022-10-17T05:52:10.381Z,100351.50
2022-10-17T05:54:36.882Z,100339.94
2022-10-17T05:57:03.317Z,100341.63
2022-10-17T05:59:29.654Z,100337.97
2022-10-17T06:01:57.308Z,100351.69
2022-10-17T06:04:23.708Z,100352.34
2022-10-17T06:06:50.053Z,100357.88
2022-10-17T06:09:16.431Z,100368.72
2022-10-17T06:11:42.808Z,100384.00
2022-10-17T06:14:09.148Z,100385.09
2022-10-17T06:16:35.485Z,100384.13
2022-10-17T06:19:03.127Z,100398.41
2022-10-17T06:21:29.532Z,100402.03
2022-10-17T06:23:55.868Z,100409.97
2022-10-17T06:26:22.317Z,100399.94
2022-10-17T06:28:48.695Z,100410.69
2022-10-17T06:31:15.907Z,100407.16
2022-10-17T06:33:42.450Z,100398.97
2022-10-17T06:36:12.011Z,100411.41
2022-10-17T06:38:38.360Z,100408.88
2022-10-17T06:41:05.558Z,100404.34
2022-10-17T06:43:31.923Z,100397.16
2022-10-17T06:45:58.279Z,100392.63
2022-10-17T06:48:24.680Z,100384.16
2022-10-17T06:50:51.058Z,100393.09
2022-10-17T06:53:18.764Z,100394.50
2022-10-17T06:55:45.131Z,100403.25
2022-10-17T06:58:11.595Z,100409.34
2022-10-17T07:00:38.037Z,100424.47
2022-10-17T07:03:04.448Z,100437.06
2022-10-17T07:05:30.879Z,100451.09
2022-10-17T07:07:57.237Z,100451.09
2022-10-17T07:10:26.100Z,100462.56
2022-10-17T07:12:52.450Z,100467.06
2022-10-17T07:15:18.801Z,100477.69
2022-10-17T07:17:47.968Z,100478.38
2022-10-17T07:20:14.900Z,100486.44
2022-10-17T07:22:41.314Z,100481.94
2022-10-17T07:25:09.008Z,100486.44
2022-10-17T07:27:36.638Z,100476.94
2022-10-17T07:30:03.218Z,100476.16
2022-10-17T07:32:29.623Z,100480.34
2022-10-17T07:34:56.057Z,100483.44
2022-10-17T07:37:22.476Z,100482.78
2022-10-17T07:39:48.884Z,100487.94
2022-10-17T07:42:15.277Z,100497.44
2022-10-17T07:44:43.111Z,100500.25
2022-10-17T07:47:09.506Z,100516.22
2022-10-17T07:49:36.005Z,100519.88
2022-10-17T07:52:02.413Z,100524.03
2022-10-17T07:54:28.768Z,100524.34
2022-10-17T07:56:55.286Z,100545.44
2022-10-17T07:59:21.628Z,100554.44
2022-10-17T08:01:49.359Z,100557.84
2022-10-17T08:04:15.694Z,100551.38
2022-10-17T08:06:42.111Z,100562.25
2022-10-17T08:09:08.546Z,100552.34
2022-10-17T08:11:34.915Z,100557.47
2022-10-17T08:14:01.298Z,100561.13
2022-10-17T08:16:27.744Z,100573.72
2022-10-17T08:18:55.410Z,100572.72
2022-10-17T08:21:21.989Z,100587.97
2022-10-17T08:23:48.463Z,100580.91
2022-10-17T08:26:14.859Z,100583.47
2022-10-17T08:28:41.582Z,100594.19
2022-10-17T08:31:09.501Z,100597.59
2022-10-17T08:33:36.249Z,100606.44
2022-10-17T08:36:04.751Z,100614.38
2022-10-17T08:38:35.125Z,100621.84
2022-10-17T08:41:04.151Z,100629.03
2022-10-17T08:43:36.780Z,100634.41
2022-10-17T08:46:04.966Z,100631.91
2022-10-17T08:48:32.769Z,100638.91
2022-10-17T08:51:01.588Z,100635.38
2022-10-17T08:53:31.253Z,100642.00
2022-10-17T08:55:59.725Z,100648.00
2022-10-17T08:58:28.640Z,100643.09
2022-10-17T09:01:03.185Z,100650.69
2022-10-17T09:03:38.507Z,100655.13
2022-10-17T09:06:15.877Z,100670.19
2022-10-17T09:08:47.366Z,100677.22
2022-10-17T09:11:18.581Z,100677.16
2022-10-17T09:13:51.324Z,100673.03
2022-10-17T09:16:31.921Z,100673.59
2022-10-17T09:19:01.213Z,100692.88
2022-10-17T09:21:32.032Z,100697.16
2022-10-17T09:24:09.003Z,100702.03
2022-10-17T09:26:36.558Z,100705.31
2022-10-17T09:29:03.110Z,100709.34
2022-10-17T09:31:32.185Z,100701.88
2022-10-17T09:34:01.076Z,100710.38
2022-10-17T09:36:28.690Z,100703.56
2022-10-17T09:38:55.968Z,100717.97
2022-10-17T09:41:44.402Z,100724.19
2022-10-17T09:44:14.968Z,100733.47
2022-10-17T09:46:43.543Z,100725.66
2022-10-17T09:49:14.798Z,100723.38
2022-10-17T09:51:43.164Z,100717.50
2022-10-17T09:54:14.169Z,100720.44
2022-10-17T09:56:55.353Z,100729.59
2022-10-17T09:59:31.849Z,100722.41
2022-10-17T10:02:07.833Z,100725.06
2022-10-17T10:04:46.925Z,100729.97
2022-10-17T10:07:23.523Z,100740.94
2022-10-17T10:09:52.581Z,100746.63
2022-10-17T10:12:21.067Z,100739.34
2022-10-17T10:14:52.186Z,100746.78
2022-10-17T10:17:29.213Z,100753.38
2022-10-17T10:19:56.086Z,100754.31
2022-10-17T10:22:22.757Z,100750.91
2022-10-17T10:25:06.743Z,100760.91
2022-10-17T10:30:01.182Z,100760.94
2022-10-17T10:32:29.922Z,100777.75
2022-10-17T10:34:57.647Z,100787.47
2022-10-17T10:37:25.262Z,100786.78
2022-10-17T10:39:52.873Z,100792.47
2022-10-17T10:42:22.695Z,100812.38
2022-10-17T10:44:49.408Z,100822.34
2022-10-17T10:47:19.156Z,100812.00
2022-10-17T10:49:45.930Z,100803.94
2022-10-17T10:52:16.073Z,100799.69
2022-10-17T10:54:47.177Z,100806.41
2022-10-17T10:57:17.805Z,100820.66
2022-10-17T10:59:48.226Z,100806.25
2022-10-17T11:02:18.253Z,100809.69
2022-10-17T11:04:47.509Z,100815.91
2022-10-17T11:07:15.891Z,100822.13
2022-10-17T11:09:46.232Z,100828.22
2022-10-17T11:12:15.021Z,100829.69
2022-10-17T11:14:44.935Z,100838.47
2022-10-17T11:17:16.885Z,100840.78
2022-10-17T11:19:45.073Z,100836.25
2022-10-17T11:22:29.043Z,100838.59
2022-10-17T11:24:58.200Z,100839.44
2022-10-17T11:27:24.706Z,100837.59
2022-10-17T11:29:51.178Z,100830.41
2022-10-17T11:32:19.669Z,100832.56
2022-10-17T11:34:48.096Z,100829.44
2022-10-17T11:37:18.655Z,100825.16
2022-10-17T11:39:48.385Z,100833.59
2022-10-17T11:42:16.780Z,100833.84
2022-10-17T11:44:43.344Z,100832.63
2022-10-17T11:47:14.257Z,100830.19
2022-10-17T11:49:43.326Z,100843.84
2022-10-17T11:52:26.961Z,100847.38
2022-10-17T11:55:11.326Z,100847.88
2022-10-17T11:57:43.385Z,100847.50
2022-10-17T12:00:20.066Z,100838.94
2022-10-17T12:02:50.644Z,100845.31
2022-10-17T12:05:21.745Z,100847.13
2022-10-17T12:07:50.159Z,100852.00
2022-10-17T12:10:23.050Z,100847.47
2022-10-17T12:12:49.466Z,100847.47
2022-10-17T12:15:25.980Z,100852.00
2022-10-17T12:17:55.157Z,100850.31
2022-10-17T12:20:26.549Z,100852.13
2022-10-17T12:22:54.071Z,100863.34
2022-10-17T12:25:22.985Z,100859.19
2022-10-17T12:27:50.190Z,100865.91
2022-10-17T12:30:18.493Z,100855.66
2022-10-17T12:33:05.728Z,100867.00
2022-10-17T12:35:34.093Z,100868.00
2022-10-17T12:38:02.190Z,100866.16
2022-10-17T12:40:48.494Z,100859.81
2022-10-17T12:43:30.209Z,100865.06
2022-10-17T12:45:58.567Z,100862.63
2022-10-17T12:48:35.940Z,100862.38
2022-10-17T12:51:30.723Z,100874.09
2022-10-17T12:53:56.323Z,100864.09
2022-10-17T12:56:30.867Z,100853.81
2022-10-17T12:58:59.427Z,100861.41
2022-10-17T13:01:28.398Z,100861.28
2022-10-17T13:03:55.795Z,100860.41
2022-10-17T13:06:23.579Z,100853.81
2022-10-17T13:08:56.110Z,100858.25
2022-10-17T13:11:25.725Z,100868.47
2022-10-17T13:13:53.166Z,100865.69
2022-10-17T13:16:29.006Z,100876.53
2022-10-17T13:18:55.664Z,100881.88
2022-10-17T13:21:22.074Z,100886.16
2022-10-17T13:23:48.524Z,100878.88
2022-10-17T13:26:16.230Z,100888.59
2022-10-17T13:28:42.809Z,100883.00
2022-10-17T13:31:26.387Z,100878.25
2022-10-17T13:33:56.978Z,100868.34
2022-10-17T13:36:24.039Z,100882.38
2022-10-17T13:38:50.531Z,100884.56
2022-10-17T13:41:48.146Z,100897.88
2022-10-17T13:44:12.580Z,100892.75
2022-10-17T13:46:39.980Z,100892.63
2022-10-17T13:49:15.118Z,100901.78
2022-10-17T13:51:43.603Z,100894.81
2022-10-17T13:54:17.237Z,100897.75
2022-10-17T13:56:43.635Z,100896.75
2022-10-17T13:59:19.406Z,100895.91
2022-10-17T14:01:45.816Z,100901.50
2022-10-17T14:04:19.765Z,100895.53
2022-10-17T14:06:49.773Z,100892.84
2022-10-17T14:09:20.982Z,100894.94
2022-10-17T14:11:56.743Z,100894.56
2022-10-17T14:14:24.333Z,100887.50
2022-10-17T14:16:50.808Z,100892.13
2022-10-17T14:19:23.236Z,100901.88
2022-10-17T14:21:49.664Z,100901.88
2022-10-17T14:24:26.207Z,100907.13
2022-10-17T14:26:53.496Z,100900.28
2022-10-17T14:29:22.530Z,100905.03
2022-10-17T14:31:48.912Z,100901.13
2022-10-17T14:34:20.366Z,100906.88
2022-10-17T14:36:50.004Z,100905.78
2022-10-17T14:39:18.878Z,100910.94
2022-10-17T14:41:45.972Z,100910.69
2022-10-17T14:44:19.369Z,100903.59
2022-10-17T14:46:50.504Z,100915.31
2022-10-17T14:49:24.299Z,100918.75
2022-10-17T14:52:07.945Z,100916.06
2022-10-17T14:54:36.485Z,100903.59
2022-10-17T14:57:08.616Z,100914.22
2022-10-17T14:59:53.428Z,100908.72
2022-10-17T15:02:20.871Z,100914.94
2022-10-17T15:04:47.279Z,100908.84
2022-10-17T15:07:14.744Z,100904.34
2022-10-17T15:09:42.764Z,100906.19
2022-10-17T15:12:13.131Z,100914.31
2022-10-17T15:14:39.680Z,100925.94
2022-10-17T15:17:09.894Z,100927.66
2022-10-17T15:19:36.425Z,100920.44
2022-10-17T15:22:02.944Z,100923.97
2022-10-17T15:24:29.265Z,100925.69
2022-10-17T15:26:56.966Z,100917.75
2022-10-17T15:29:23.401Z,100905.31
2022-10-17T15:31:49.792Z,100918.75
2022-10-17T15:34:16.162Z,100919.59
2022-10-17T15:36:48.275Z,100921.19
2022-10-17T15:39:14.816Z,100916.78
2022-10-17T15:41:41.469Z,100910.69
2022-10-17T15:44:09.372Z,100910.69
2022-10-17T15:46:36.465Z,100916.91
2022-10-17T15:49:04.278Z,100917.75
2022-10-17T15:51:30.689Z,100917.63
2022-10-17T15:53:57.135Z,100927.66
2022-10-17T15:56:24.784Z,100924.22
2022-10-17T15:58:51.496Z,100924.09
2022-10-17T16:01:22.107Z,100921.44
2022-10-17T16:03:48.482Z,100918.59
2022-10-17T16:06:15.056Z,100916.91
2022-10-17T16:08:41.403Z,100923.13
2022-10-17T16:11:12.879Z,100919.47
2022-10-17T16:13:39.305Z,100915.81
2022-10-17T16:16:06.074Z,100918.50
2022-10-17T16:18:34.028Z,100914.00
2022-10-17T16:21:00.479Z,100918.38
2022-10-17T16:23:26.866Z,100922.03
2022-10-17T16:25:53.247Z,100927.41
2022-10-17T16:28:19.635Z,100926.56
2022-10-17T16:30:46.040Z,100921.19
2022-10-17T16:33:12.585Z,100930.94
2022-10-17T16:35:40.329Z,100929.97
2022-10-17T16:38:07.277Z,100922.66
2022-10-17T16:40:34.342Z,100927.16
2022-10-17T16:43:00.829Z,100918.13
2022-10-17T16:45:27.184Z,100933.38
2022-10-17T16:47:53.604Z,100936.78
2022-10-17T16:50:20.173Z,100940.47
2022-10-17T16:52:47.830Z,100934.34
2022-10-17T16:55:14.185Z,100942.38
2022-10-17T17:00:15.443Z,100940.94
2022-10-17T17:02:41.762Z,100945.44
2022-10-17T17:05:08.390Z,100945.56
2022-10-17T17:07:34.753Z,100953.50
2022-10-17T17:10:02.359Z,100963.38
2022-10-17T17:12:28.752Z,100959.00
2022-10-17T17:14:55.178Z,100962.63
2022-10-17T17:17:30.651Z,100967.16
2022-10-17T17:20:03.875Z,100974.25
2022-10-17T17:22:30.474Z,100977.78
2022-10-17T17:24:56.960Z,100975.09
2022-10-17T17:27:26.816Z,100982.16
2022-10-17T17:29:53.260Z,100985.59
2022-10-17T17:32:19.706Z,100980.22
2022-10-17T17:34:46.149Z,100988.28
2022-10-17T17:37:12.473Z,100983.88
2022-10-17T17:39:38.977Z,100984.72
2022-10-17T17:42:05.300Z,100988.38
2022-10-17T17:44:32.917Z,100995.44
2022-10-17T17:46:59.372Z,101001.81
2022-10-17T17:49:25.715Z,101002.88
2022-10-17T17:51:52.114Z,101009.22
2022-10-17T17:54:18.627Z,101011.06
2022-10-17T17:56:44.995Z,101011.06
2022-10-17T17:59:12.187Z,101018.25
2022-10-17T18:01:39.951Z,101013.75
2022-10-17T18:04:07.615Z,101012.75
2022-10-17T18:06:34.149Z,101020.09
2022-10-17T18:09:00.626Z,101023.72
2022-10-17T18:11:27.554Z,101022.88
2022-10-17T18:13:54.493Z,101014.81
2022-10-17T18:16:20.968Z,101016.53
2022-10-17T18:18:48.725Z,101013.75
2022-10-17T18:21:15.219Z,101017.28
2022-10-17T18:23:42.262Z,101025.34
2022-10-17T18:26:09.195Z,101027.16
2022-10-17T18:28:36.220Z,101037.78
2022-10-17T18:31:04.784Z,101037.91
2022-10-17T18:33:31.132Z,101040.69
2022-10-17T18:36:06.710Z,101045.19
2022-10-17T18:38:33.559Z,101047.03
2022-10-17T18:41:03.949Z,101045.31
2022-10-17T18:43:31.894Z,101042.66
2022-10-17T18:46:01.081Z,101042.66
2022-10-17T18:48:27.961Z,101039.97
2022-10-17T18:50:54.397Z,101038.97
2022-10-17T18:53:22.541Z,101047.03
2022-10-17T18:55:50.137Z,101046.19
2022-10-17T18:58:16.656Z,101055.09
2022-10-17T19:00:43.006Z,101047.88
2022-10-17T19:03:09.366Z,101061.44
2022-10-17T19:05:37.735Z,101060.56
2022-10-17T19:08:04.131Z,101061.44
2022-10-17T19:10:33.225Z,101050.69
2022-10-17T19:12:59.621Z,101049.00
2022-10-17T19:15:26.920Z,101047.25
2022-10-17T19:17:53.495Z,101058.00
2022-10-17T19:20:19.907Z,101046.41
2022-10-17T19:22:46.405Z,101054.47
2022-10-17T19:25:12.824Z,101064.34
2022-10-17T19:27:40.560Z,101063.50
2022-10-17T19:30:07.560Z,101070.69
2022-10-17T19:32:34.435Z,101067.16
2022-10-17T19:35:00.876Z,101067.25
2022-10-17T19:37:27.339Z,101065.41
2022-10-17T19:39:53.770Z,101071.63
2022-10-17T19:42:20.156Z,101072.53
2022-10-17T19:44:47.907Z,101069.84
2022-10-17T19:47:14.347Z,101072.53
2022-10-17T19:49:40.713Z,101067.25
2022-10-17T19:52:07.331Z,101078.84
2022-10-17T19:54:34.020Z,101077.00
2022-10-17T19:57:00.569Z,101088.72
2022-10-17T19:59:27.296Z,101091.41
2022-10-17T20:01:55.644Z,101083.34
2022-10-17T20:04:22.342Z,101085.19
2022-10-17T20:06:49.008Z,101088.84
2022-10-17T20:09:17.222Z,101088.00
2022-10-17T20:11:44.400Z,101089.69
2022-10-17T20:14:11.231Z,101084.34
2022-10-17T20:16:37.917Z,101090.69
2022-10-17T20:19:07.384Z,101086.25
2022-10-17T20:21:34.492Z,101088.00
2022-10-17T20:24:02.419Z,101086.25
2022-10-17T20:26:38.663Z,101083.47
2022-10-17T20:29:07.513Z,101079.06
2022-10-17T20:31:34.159Z,101094.31
2022-10-17T20:34:00.728Z,101099.69
2022-10-17T20:36:28.544Z,101102.34
2022-10-17T20:38:55.425Z,101108.69
2022-10-17T20:41:22.325Z,101118.47
2022-10-17T20:43:49.994Z,101106.03
2022-10-17T20:46:35.020Z,101110.53
2022-10-17T20:49:02.681Z,101114.91
2022-10-17T20:51:30.382Z,101107.72
2022-10-17T20:56:29.858Z,101106.78
2022-10-17T20:58:57.429Z,101106.78
2022-10-17T21:01:24.338Z,101111.25
2022-10-17T21:03:51.061Z,101113.94
2022-10-17T21:06:18.050Z,101119.44
2022-10-17T21:08:46.510Z,101114.91
2022-10-17T21:11:14.169Z,101110.63
2022-10-17T21:13:41.304Z,101116.88
2022-10-17T21:16:08.958Z,101119.56
2022-10-17T21:18:35.438Z,101128.47
2022-10-17T21:21:07.853Z,101134.78
2022-10-17T21:23:34.346Z,101140.16
2022-10-17T21:26:02.138Z,101142.81
2022-10-17T21:28:28.534Z,101153.56
2022-10-17T21:30:54.992Z,101154.53
2022-10-17T21:33:21.308Z,101157.22
2022-10-17T21:35:47.670Z,101161.72
2022-10-17T21:38:14.065Z,101164.41
2022-10-17T21:40:40.398Z,101170.63
2022-10-17T21:43:08.060Z,101168.94
2022-10-17T21:45:35.668Z,101162.59
2022-10-17T21:48:12.606Z,101165.41
2022-10-17T21:50:39.376Z,101169.91
2022-10-17T21:53:05.817Z,101172.59
2022-10-17T21:55:32.139Z,101168.94
2022-10-17T21:57:58.775Z,101171.72
2022-10-17T22:00:26.426Z,101183.31
2022-10-17T22:02:53.611Z,101170.84
2022-10-17T22:05:20.054Z,101164.53
2022-10-17T22:07:46.407Z,101166.47
2022-10-17T22:10:12.838Z,101172.69
2022-10-17T22:12:39.176Z,101175.28
2022-10-17T22:15:06.134Z,101167.31
2022-10-17T22:17:33.833Z,101169.16
2022-10-17T22:20:00.166Z,101167.31
2022-10-17T22:22:26.587Z,101168.16
2022-10-17T22:24:53.154Z,101165.50
2022-10-17T22:27:19.561Z,101174.41
2022-10-17T22:29:45.910Z,101181.59
2022-10-17T22:32:12.612Z,101178.91
2022-10-17T22:34:40.505Z,101179.03
2022-10-17T22:37:06.886Z,101178.06
2022-10-17T22:39:33.252Z,101181.59
2022-10-17T22:41:59.694Z,101174.53
2022-10-17T22:44:26.028Z,101173.66
2022-10-17T22:46:52.501Z,101177.31
2022-10-17T22:49:18.822Z,101174.53
2022-10-17T22:51:46.528Z,101179.88
2022-10-17T22:54:12.874Z,101184.50
2022-10-17T22:56:39.646Z,101182.69
2022-10-17T22:59:06.042Z,101184.50
2022-10-17T23:01:32.515Z,101187.16
2022-10-17T23:03:58.911Z,101190.75
2022-10-17T23:06:25.432Z,101194.28
2022-10-17T23:08:53.089Z,101193.41
2022-10-17T23:11:19.426Z,101196.97
2022-10-17T23:13:45.856Z,101197.81
2022-10-17T23:16:12.461Z,101191.59
2022-10-17T23:18:38.839Z,101186.44
2022-10-17T23:21:05.451Z,101184.63
2022-10-17T23:23:32.154Z,101189.13
2022-10-17T23:26:05.209Z,101182.91
2022-10-17T23:28:31.678Z,101181.94
2022-10-17T23:30:58.020Z,101189.13
2022-10-17T23:33:24.434Z,101186.44
2022-10-17T23:35:50.772Z,101189.13
2022-10-17T23:38:17.316Z,101185.59
2022-10-17T23:40:43.662Z,101197.19
2022-10-17T23:43:11.404Z,101189.22
2022-10-17T23:45:37.798Z,101191.91
2022-10-17T23:48:05.853Z,101199.94
2022-10-17T23:50:33.713Z,101199.94
2022-10-17T23:53:00.034Z,101200.06
2022-10-17T23:55:26.393Z,101200.06
2022-10-17T23:57:52.813Z,101204.47
